Airfield :
LOGIN :

Register | Disclaimer

   EN    FR    IT 

 










Legend :    VFR   Marginal VFR   IFR   Intensive IFR   Very Intensive IFR
Visi :
Ceiling :
>= 8 km
>= 3000ft
5 to 8 km
1000 to 3000 ft
1500m to 5 km
500 to 1000 ft
800 to 1500m
200 to 500 ft
< 800m
< 200 ft
Symbols :   Thunderstorms  Fog  Heavy snow  Heavy precipitations  Wind > 20 kt
SIGMETs :     Misc.  Thunderstorms  Icing  Turbulence  Mountain Waves  Volcanic Ashes







- Airport Elevation : 1000 ft
- IATA code : PEV


LHPP - Pécs Pogany

EXPIRED METARs :
  • 141645Z 31010KT 9999 -RA FEW033CB BKN083 19/18 Q1013 RETS
  • 141615Z 30013KT 9999 -RA SCT033CB BKN083 19/18 Q1013 RETS
  • 141545Z 30007KT 9999 TSRA BKN033CB 19/17 Q1013

TAF TAF LHPP
Valid from the 14 at 15:00 until the 15 at 00:00 UTC


141415Z 1415/1424 17005KT 9999 -SHRA SCT045TCU BKN050
TEMPO 1415/1419 VRB18G32KT 3000 TSRA BKN045CB
PROB30
TEMPO 1415/1418 VRB20G48KT 0800 +TSGR SQ
No reported NOTAMs for that airfield.
2 SIGMETs reported for the Budapest FIR (LHCC) :
 
Embedded thunderstorms
LHCC SIGMET 09 VALID 141900/142100 LHBP
LHCC BUDAPEST FIR EMBD TS FCST N OF LINE N4804 E01910 - N4644 E02106 - N4823 E02210 TOP FL390 MOV NE NC=
Embedded thunderstorms
LHCC SIGMET 08 VALID 141720/141900 LHBP
LHCC BUDAPEST FIR EMBD TS OBS E OF E01850 AND W OF E02100 TOP FL400 MOV NNE NC=



MET'MAP, your aeronautical weather chart ! - Copyright ORBIFLY December 2007 - Disclaimer

ORBIFLY MET'MAP TEAM :

Programming & Development : Alexandra Zaïnal
Concept & Development : Baudouin d'Aumeries
Co-Development & Prog : Marc-Olivier Méhu
Technical & hardware support : Manuel Goepfert

Contact : metmap@orbifly.com




SOURCES & CREDITS :

   NOAA